Airfield :
LOGIN :

Register | Disclaimer

   EN    FR    IT 

 










Legend :    VFR   Marginal VFR   IFR   Intensive IFR   Very Intensive IFR
Visi :
Ceiling :
>= 8 km
>= 3000ft
5 to 8 km
1000 to 3000 ft
1500m to 5 km
500 to 1000 ft
800 to 1500m
200 to 500 ft
< 800m
< 200 ft
Symbols :   Thunderstorms  Fog  Heavy snow  Heavy precipitations  Wind > 20 kt
SIGMETs :     Misc.  Thunderstorms  Icing  Turbulence  Mountain Waves  Volcanic Ashes







- Airport Elevation : 38 ft
- IATA code : TRE
- Download approach charts


EGPU - Tiree

CURRENT METAR :
  • 180720Z 23009KT 9999 SCT041 09/07 Q1027

EXPIRED METARs :
  • 180650Z 20007KT 9999 SCT042 08/05 Q1027
  • 180620Z AUTO 22007KT 180V250 9999 BKN039/// 09/05 Q1027
  • 180550Z AUTO 23007KT 9999 BKN035/// 09/05 Q1027
  • 180520Z AUTO 24006KT 9999 SCT039/// 07/04 Q1027
  • 180450Z AUTO 24007KT 9999 SCT045/// 07/03 Q1026

TAF TAF EGPU
Valid from the 18 at 06:00 until the 18 at 15:00 UTC


180457Z 1806/1815 23012KT 9999 FEW025
No reported NOTAMs for that airfield.



MET'MAP, your aeronautical weather chart ! - Copyright ORBIFLY December 2007 - Disclaimer

ORBIFLY MET'MAP TEAM :

Programming & Development : Alexandra Zaïnal
Concept & Development : Baudouin d'Aumeries
Co-Development & Prog : Marc-Olivier Méhu
Technical & hardware support : Manuel Goepfert

Contact : metmap@orbifly.com




SOURCES & CREDITS :

   NOAA